This is the latest recevied weather packets stored in our database for station/object DL1MMS-10. If no packets are shown the sender has not sent any weather packets the latest 10 day(s).
| Time | Temp. | Humidity | Pressure | Rain* | Wind** | Luminosity | Snow |
|---|---|---|---|---|---|---|---|
| 1778172954 | 20° C | 43% | 1015 hPa | 0 mm | - | - | - |
| 1778172653 | 20.56° C | 41% | 1015 hPa | 0 mm | - | - | - |
| 1778172353 | 22.22° C | 40% | 1015 hPa | 0 mm | - | - | - |
| 1778172053 | 22.78° C | 41% | 1015 hPa | 0 mm | - | - | - |
| 1778171752 | 22.22° C | 43% | 1015 hPa | 0 mm | - | - | - |
| 1778171452 | 20.56° C | 43% | 1014.9 hPa | 0 mm | - | - | - |
| 1778171152 | 21.67° C | 40% | 1014.9 hPa | 0 mm | - | - | - |
| 1778170851 | 23.33° C | 38% | 1014.8 hPa | 0 mm | - | - | - |
| 1778170551 | 26.11° C | 34% | 1014.8 hPa | 0 mm | - | - | - |
| 1778170251 | 28.33° C | 31% | 1014.7 hPa | 0 mm | - | - | - |
| 1778169951 | 29.44° C | 32% | 1014.7 hPa | 0 mm | - | - | - |
| 1778169650 | 29.44° C | 32% | 1014.8 hPa | 0 mm | - | - | - |
| 1778169350 | 28.89° C | 32% | 1014.7 hPa | 0 mm | - | - | - |
| 1778169050 | 28.33° C | 34% | 1014.7 hPa | 0 mm | - | - | - |
| 1778168750 | 27.22° C | 35% | 1014.8 hPa | 0 mm | - | - | - |
| 1778168449 | 26.67° C | 37% | 1014.6 hPa | 0 mm | - | - | - |
| 1778168149 | 25° C | 39% | 1014.7 hPa | 0 mm | - | - | - |
| 1778167849 | 25° C | 39% | 1014.8 hPa | 0 mm | - | - | - |
| 1778167548 | 25° C | 39% | 1014.7 hPa | 0 mm | - | - | - |
| 1778167248 | 25° C | 40% | 1014.7 hPa | 0 mm | - | - | - |
| 1778166948 | 23.89° C | 43% | 1014.7 hPa | 0 mm | - | - | - |
| 1778166648 | 22.78° C | 45% | 1014.6 hPa | 0 mm | - | - | - |
| 1778166347 | 20.56° C | 47% | 1014.6 hPa | 0 mm | - | - | - |
| 1778166047 | 20.56° C | 48% | 1014.6 hPa | 0 mm | - | - | - |
| 1778165747 | 19.44° C | 48% | 1014.6 hPa | 0 mm | - | - | - |
* Rain latest hour (hover to see other rain measurements)
** Current wind speed in m/s (hover to see current wind gust speed)